sensor_id;sensor_type;location;lat;lon;timestamp;pressure;altitude;pressure_sealevel;temperature;humidity
37848;BME280;23688;33.130;-117.188;2023-05-29T00:02:09;99339.97;;;16.57;100.00
37848;BME280;23688;33.130;-117.188;2023-05-29T00:04:35;99345.25;;;16.58;100.00
37848;BME280;23688;33.130;-117.188;2023-05-29T00:07:04;99347.56;;;16.37;100.00
37848;BME280;23688;33.130;-117.188;2023-05-29T00:09:30;99341.31;;;16.30;100.00
37848;BME280;23688;33.130;-117.188;2023-05-29T00:11:59;99343.03;;;16.26;100.00
37848;BME280;23688;33.130;-117.188;2023-05-29T00:14:26;99342.03;;;16.21;100.00
37848;BME280;23688;33.130;-117.188;2023-05-29T00:16:53;99334.84;;;16.08;100.00
37848;BME280;23688;33.130;-117.188;2023-05-29T00:19:19;99338.66;;;16.29;100.00
37848;BME280;23688;33.130;-117.188;2023-05-29T00:21:45;99326.41;;;16.26;100.00
37848;BME280;23688;33.130;-117.188;2023-05-29T00:24:14;99325.56;;;16.29;100.00
37848;BME280;23688;33.130;-117.188;2023-05-29T00:26:41;99331.59;;;16.23;100.00
37848;BME280;23688;33.130;-117.188;2023-05-29T00:29:07;99325.50;;;16.22;100.00
37848;BME280;23688;33.130;-117.188;2023-05-29T00:31:34;99328.06;;;16.19;100.00
37848;BME280;23688;33.130;-117.188;2023-05-29T00:34:02;99331.16;;;15.97;100.00
37848;BME280;23688;33.130;-117.188;2023-05-29T00:36:28;99328.59;;;15.98;100.00
37848;BME280;23688;33.130;-117.188;2023-05-29T00:38:55;99338.38;;;16.10;100.00
37848;BME280;23688;33.130;-117.188;2023-05-29T00:41:21;99334.19;;;16.20;100.00
37848;BME280;23688;33.130;-117.188;2023-05-29T00:43:48;99330.72;;;16.22;100.00
37848;BME280;23688;33.130;-117.188;2023-05-29T00:46:15;99327.09;;;16.13;100.00
37848;BME280;23688;33.130;-117.188;2023-05-29T00:48:43;99317.53;;;16.16;100.00
37848;BME280;23688;33.130;-117.188;2023-05-29T00:51:10;99310.81;;;16.34;100.00
37848;BME280;23688;33.130;-117.188;2023-05-29T00:53:39;99319.06;;;16.60;100.00
37848;BME280;23688;33.130;-117.188;2023-05-29T00:56:06;99320.75;;;16.58;100.00
37848;BME280;23688;33.130;-117.188;2023-05-29T00:58:33;99318.97;;;16.55;100.00
37848;BME280;23688;33.130;-117.188;2023-05-29T01:00:59;99318.88;;;16.47;100.00
37848;BME280;23688;33.130;-117.188;2023-05-29T01:03:26;99305.53;;;16.29;100.00
37848;BME280;23688;33.130;-117.188;2023-05-29T01:05:53;99315.25;;;16.38;100.00
37848;BME280;23688;33.130;-117.188;2023-05-29T01:08:20;99306.91;;;16.66;100.00
37848;BME280;23688;33.130;-117.188;2023-05-29T01:10:47;99308.91;;;16.81;100.00
37848;BME280;23688;33.130;-117.188;2023-05-29T01:13:23;99300.47;;;16.43;100.00
37848;BME280;23688;33.130;-117.188;2023-05-29T01:16:08;99302.28;;;16.47;100.00
37848;BME280;23688;33.130;-117.188;2023-05-29T01:18:51;99300.88;;;16.71;100.00
37848;BME280;23688;33.130;-117.188;2023-05-29T01:21:39;99288.59;;;16.69;100.00
37848;BME280;23688;33.130;-117.188;2023-05-29T01:24:26;99293.53;;;16.48;100.00
37848;BME280;23688;33.130;-117.188;2023-05-29T01:27:03;99296.75;;;16.27;100.00
37848;BME280;23688;33.130;-117.188;2023-05-29T01:29:34;99293.97;;;16.18;100.00
37848;BME280;23688;33.130;-117.188;2023-05-29T01:32:02;99290.81;;;16.39;100.00
37848;BME280;23688;33.130;-117.188;2023-05-29T01:34:29;99294.94;;;16.23;100.00
37848;BME280;23688;33.130;-117.188;2023-05-29T01:36:55;99286.53;;;16.45;100.00
37848;BME280;23688;33.130;-117.188;2023-05-29T01:39:23;99295.59;;;16.69;100.00
37848;BME280;23688;33.130;-117.188;2023-05-29T01:41:49;99296.09;;;16.42;100.00
37848;BME280;23688;33.130;-117.188;2023-05-29T01:44:17;99297.78;;;16.38;100.00
37848;BME280;23688;33.130;-117.188;2023-05-29T01:46:44;99302.00;;;16.29;100.00
37848;BME280;23688;33.130;-117.188;2023-05-29T01:49:12;99298.31;;;16.16;100.00
37848;BME280;23688;33.130;-117.188;2023-05-29T01:51:40;99297.88;;;15.90;100.00
37848;BME280;23688;33.130;-117.188;2023-05-29T01:54:07;99304.94;;;15.94;100.00
37848;BME280;23688;33.130;-117.188;2023-05-29T01:56:34;99288.06;;;15.76;100.00
37848;BME280;23688;33.130;-117.188;2023-05-29T01:59:02;99295.72;;;15.67;100.00
37848;BME280;23688;33.130;-117.188;2023-05-29T02:01:29;99286.97;;;15.65;100.00
37848;BME280;23688;33.130;-117.188;2023-05-29T02:03:55;99287.66;;;15.53;100.00
37848;BME280;23688;33.130;-117.188;2023-05-29T02:06:22;99293.69;;;15.51;100.00
37848;BME280;23688;33.130;-117.188;2023-05-29T02:08:48;99293.84;;;15.58;100.00
37848;BME280;23688;33.130;-117.188;2023-05-29T02:11:14;99299.94;;;15.59;100.00
37848;BME280;23688;33.130;-117.188;2023-05-29T02:13:42;99295.59;;;15.59;100.00
37848;BME280;23688;33.130;-117.188;2023-05-29T02:16:08;99299.63;;;15.88;100.00
37848;BME280;23688;33.130;-117.188;2023-05-29T02:18:35;99300.66;;;15.97;100.00
37848;BME280;23688;33.130;-117.188;2023-05-29T02:21:02;99297.53;;;15.70;100.00
37848;BME280;23688;33.130;-117.188;2023-05-29T02:23:28;99298.78;;;15.41;100.00
37848;BME280;23688;33.130;-117.188;2023-05-29T02:25:55;99310.06;;;15.39;100.00
37848;BME280;23688;33.130;-117.188;2023-05-29T02:28:21;99304.66;;;15.31;100.00
37848;BME280;23688;33.130;-117.188;2023-05-29T02:30:47;99312.41;;;15.25;100.00
37848;BME280;23688;33.130;-117.188;2023-05-29T02:33:15;99313.66;;;15.46;100.00
37848;BME280;23688;33.130;-117.188;2023-05-29T02:35:42;99321.81;;;15.62;100.00
37848;BME280;23688;33.130;-117.188;2023-05-29T02:38:08;99318.00;;;15.44;100.00
37848;BME280;23688;33.130;-117.188;2023-05-29T02:40:34;99318.53;;;15.27;100.00
37848;BME280;23688;33.130;-117.188;2023-05-29T02:43:01;99332.34;;;15.20;100.00
37848;BME280;23688;33.130;-117.188;2023-05-29T02:45:27;99333.25;;;15.22;100.00
37848;BME280;23688;33.130;-117.188;2023-05-29T02:47:53;99338.09;;;15.04;100.00
37848;BME280;23688;33.130;-117.188;2023-05-29T02:50:22;99335.53;;;15.05;100.00
37848;BME280;23688;33.130;-117.188;2023-05-29T02:52:49;99331.13;;;15.04;100.00
37848;BME280;23688;33.130;-117.188;2023-05-29T02:55:17;99323.25;;;15.01;100.00
37848;BME280;23688;33.130;-117.188;2023-05-29T02:57:44;99331.03;;;14.98;100.00
37848;BME280;23688;33.130;-117.188;2023-05-29T03:00:10;99330.81;;;14.89;100.00
37848;BME280;23688;33.130;-117.188;2023-05-29T03:02:37;99344.88;;;14.92;100.00
37848;BME280;23688;33.130;-117.188;2023-05-29T03:05:06;99348.31;;;14.91;100.00
37848;BME280;23688;33.130;-117.188;2023-05-29T03:07:35;99342.25;;;14.92;100.00
37848;BME280;23688;33.130;-117.188;2023-05-29T03:10:02;99344.16;;;15.01;100.00
37848;BME280;23688;33.130;-117.188;2023-05-29T03:12:29;99345.28;;;15.14;100.00
37848;BME280;23688;33.130;-117.188;2023-05-29T03:14:55;99348.63;;;15.07;100.00
37848;BME280;23688;33.130;-117.188;2023-05-29T03:17:22;99352.91;;;15.03;100.00
37848;BME280;23688;33.130;-117.188;2023-05-29T03:19:49;99360.66;;;14.98;100.00
37848;BME280;23688;33.130;-117.188;2023-05-29T03:22:15;99357.88;;;14.91;100.00
37848;BME280;23688;33.130;-117.188;2023-05-29T03:24:44;99355.88;;;14.79;100.00
37848;BME280;23688;33.130;-117.188;2023-05-29T03:27:11;99361.28;;;14.87;100.00
37848;BME280;23688;33.130;-117.188;2023-05-29T03:29:37;99370.69;;;14.80;100.00
37848;BME280;23688;33.130;-117.188;2023-05-29T03:32:03;99375.16;;;14.83;100.00
37848;BME280;23688;33.130;-117.188;2023-05-29T03:34:30;99376.75;;;14.77;100.00
37848;BME280;23688;33.130;-117.188;2023-05-29T03:36:57;99383.59;;;14.72;100.00
37848;BME280;23688;33.130;-117.188;2023-05-29T03:39:23;99381.84;;;14.71;100.00
37848;BME280;23688;33.130;-117.188;2023-05-29T03:41:51;99380.16;;;14.73;100.00
37848;BME280;23688;33.130;-117.188;2023-05-29T03:44:18;99377.38;;;14.66;100.00
37848;BME280;23688;33.130;-117.188;2023-05-29T03:46:44;99381.78;;;14.68;100.00
37848;BME280;23688;33.130;-117.188;2023-05-29T03:49:10;99376.50;;;14.67;100.00
37848;BME280;23688;33.130;-117.188;2023-05-29T03:51:37;99381.03;;;14.74;100.00
37848;BME280;23688;33.130;-117.188;2023-05-29T03:54:03;99390.63;;;14.75;100.00
37848;BME280;23688;33.130;-117.188;2023-05-29T03:56:30;99386.16;;;14.69;100.00
37848;BME280;23688;33.130;-117.188;2023-05-29T03:58:56;99389.03;;;14.82;100.00
37848;BME280;23688;33.130;-117.188;2023-05-29T04:01:23;99384.56;;;14.76;100.00
37848;BME280;23688;33.130;-117.188;2023-05-29T04:03:49;99405.66;;;14.84;100.00
37848;BME280;23688;33.130;-117.188;2023-05-29T04:06:16;99402.16;;;14.83;100.00
37848;BME280;23688;33.130;-117.188;2023-05-29T04:08:42;99404.03;;;14.89;100.00
37848;BME280;23688;33.130;-117.188;2023-05-29T04:11:08;99413.44;;;14.82;100.00
37848;BME280;23688;33.130;-117.188;2023-05-29T04:13:35;99408.25;;;14.84;100.00
37848;BME280;23688;33.130;-117.188;2023-05-29T04:16:01;99422.31;;;14.89;100.00
37848;BME280;23688;33.130;-117.188;2023-05-29T04:18:28;99421.72;;;15.01;100.00
37848;BME280;23688;33.130;-117.188;2023-05-29T04:20:54;99425.34;;;15.07;100.00
37848;BME280;23688;33.130;-117.188;2023-05-29T04:23:21;99415.97;;;15.17;100.00
37848;BME280;23688;33.130;-117.188;2023-05-29T04:25:47;99415.16;;;15.21;100.00
37848;BME280;23688;33.130;-117.188;2023-05-29T04:28:17;99430.03;;;15.24;100.00
37848;BME280;23688;33.130;-117.188;2023-05-29T04:30:46;99428.84;;;15.09;100.00
37848;BME280;23688;33.130;-117.188;2023-05-29T04:33:12;99423.19;;;14.88;100.00
37848;BME280;23688;33.130;-117.188;2023-05-29T04:35:41;99435.28;;;14.84;100.00
37848;BME280;23688;33.130;-117.188;2023-05-29T04:38:09;99438.63;;;14.79;100.00
37848;BME280;23688;33.130;-117.188;2023-05-29T04:40:36;99437.81;;;14.81;100.00
37848;BME280;23688;33.130;-117.188;2023-05-29T04:43:06;99426.34;;;14.74;100.00
37848;BME280;23688;33.130;-117.188;2023-05-29T04:45:32;99433.75;;;14.94;100.00
37848;BME280;23688;33.130;-117.188;2023-05-29T04:47:58;99439.13;;;15.00;100.00
37848;BME280;23688;33.130;-117.188;2023-05-29T04:50:26;99446.88;;;14.97;100.00
37848;BME280;23688;33.130;-117.188;2023-05-29T04:52:56;99444.03;;;14.86;100.00
37848;BME280;23688;33.130;-117.188;2023-05-29T04:55:23;99446.81;;;14.92;100.00
37848;BME280;23688;33.130;-117.188;2023-05-29T04:57:49;99456.34;;;14.90;100.00
37848;BME280;23688;33.130;-117.188;2023-05-29T05:00:16;99436.38;;;14.94;100.00
37848;BME280;23688;33.130;-117.188;2023-05-29T05:02:44;99455.75;;;15.02;100.00
37848;BME280;23688;33.130;-117.188;2023-05-29T05:05:11;99445.47;;;15.10;100.00
37848;BME280;23688;33.130;-117.188;2023-05-29T05:07:41;99452.69;;;15.22;100.00
37848;BME280;23688;33.130;-117.188;2023-05-29T05:10:08;99436.09;;;15.19;100.00
37848;BME280;23688;33.130;-117.188;2023-05-29T05:12:34;99430.09;;;15.25;100.00
37848;BME280;23688;33.130;-117.188;2023-05-29T05:15:04;99446.16;;;15.03;100.00
37848;BME280;23688;33.130;-117.188;2023-05-29T05:17:30;99455.44;;;14.90;100.00
37848;BME280;23688;33.130;-117.188;2023-05-29T05:19:57;99444.81;;;14.82;100.00
37848;BME280;23688;33.130;-117.188;2023-05-29T05:22:23;99448.13;;;14.75;100.00
37848;BME280;23688;33.130;-117.188;2023-05-29T05:24:50;99446.38;;;14.74;100.00
37848;BME280;23688;33.130;-117.188;2023-05-29T05:27:18;99450.72;;;14.75;100.00
37848;BME280;23688;33.130;-117.188;2023-05-29T05:29:44;99445.38;;;14.69;100.00
37848;BME280;23688;33.130;-117.188;2023-05-29T05:32:11;99446.13;;;14.63;100.00
37848;BME280;23688;33.130;-117.188;2023-05-29T05:34:37;99434.84;;;14.66;100.00
37848;BME280;23688;33.130;-117.188;2023-05-29T05:37:04;99450.31;;;14.58;100.00
37848;BME280;23688;33.130;-117.188;2023-05-29T05:39:30;99434.38;;;14.47;100.00
37848;BME280;23688;33.130;-117.188;2023-05-29T05:41:56;99444.94;;;14.52;100.00
37848;BME280;23688;33.130;-117.188;2023-05-29T05:44:22;99437.44;;;14.64;100.00
37848;BME280;23688;33.130;-117.188;2023-05-29T05:46:49;99444.91;;;14.87;100.00
37848;BME280;23688;33.130;-117.188;2023-05-29T05:49:15;99454.72;;;14.95;100.00
37848;BME280;23688;33.130;-117.188;2023-05-29T05:51:41;99449.75;;;15.08;100.00
37848;BME280;23688;33.130;-117.188;2023-05-29T05:54:08;99456.91;;;15.15;100.00
37848;BME280;23688;33.130;-117.188;2023-05-29T05:56:35;99449.81;;;15.11;100.00
37848;BME280;23688;33.130;-117.188;2023-05-29T05:59:01;99449.00;;;15.13;100.00
37848;BME280;23688;33.130;-117.188;2023-05-29T06:01:27;99445.28;;;15.02;100.00
37848;BME280;23688;33.130;-117.188;2023-05-29T06:03:54;99447.84;;;15.01;100.00
37848;BME280;23688;33.130;-117.188;2023-05-29T06:06:20;99447.16;;;15.09;100.00
37848;BME280;23688;33.130;-117.188;2023-05-29T06:08:47;99447.75;;;14.96;100.00
37848;BME280;23688;33.130;-117.188;2023-05-29T06:11:15;99436.47;;;14.98;100.00
37848;BME280;23688;33.130;-117.188;2023-05-29T06:13:41;99456.75;;;15.09;100.00
37848;BME280;23688;33.130;-117.188;2023-05-29T06:16:08;99454.66;;;14.94;100.00
37848;BME280;23688;33.130;-117.188;2023-05-29T06:18:34;99456.19;;;14.84;100.00
37848;BME280;23688;33.130;-117.188;2023-05-29T06:21:01;99453.25;;;14.70;100.00
37848;BME280;23688;33.130;-117.188;2023-05-29T06:23:28;99455.09;;;14.74;100.00
37848;BME280;23688;33.130;-117.188;2023-05-29T06:25:54;99448.09;;;14.73;100.00
37848;BME280;23688;33.130;-117.188;2023-05-29T06:28:20;99443.19;;;14.87;100.00
37848;BME280;23688;33.130;-117.188;2023-05-29T06:30:47;99453.16;;;15.04;100.00
37848;BME280;23688;33.130;-117.188;2023-05-29T06:33:13;99455.00;;;15.09;100.00
37848;BME280;23688;33.130;-117.188;2023-05-29T06:35:39;99452.47;;;15.12;100.00
37848;BME280;23688;33.130;-117.188;2023-05-29T06:38:06;99443.75;;;15.12;100.00
37848;BME280;23688;33.130;-117.188;2023-05-29T06:40:32;99441.91;;;15.08;100.00
37848;BME280;23688;33.130;-117.188;2023-05-29T06:42:58;99450.59;;;15.07;100.00
37848;BME280;23688;33.130;-117.188;2023-05-29T06:45:25;99443.81;;;15.15;100.00
37848;BME280;23688;33.130;-117.188;2023-05-29T06:47:51;99453.56;;;15.22;100.00
37848;BME280;23688;33.130;-117.188;2023-05-29T06:50:17;99449.31;;;15.27;100.00
37848;BME280;23688;33.130;-117.188;2023-05-29T06:52:44;99442.41;;;15.31;100.00
37848;BME280;23688;33.130;-117.188;2023-05-29T06:55:10;99447.63;;;15.31;100.00
37848;BME280;23688;33.130;-117.188;2023-05-29T06:57:36;99442.94;;;15.14;100.00
37848;BME280;23688;33.130;-117.188;2023-05-29T07:00:04;99452.75;;;15.25;100.00
37848;BME280;23688;33.130;-117.188;2023-05-29T07:02:32;99434.38;;;15.22;100.00
37848;BME280;23688;33.130;-117.188;2023-05-29T07:04:59;99437.25;;;15.34;100.00
37848;BME280;23688;33.130;-117.188;2023-05-29T07:07:25;99436.41;;;15.35;100.00
37848;BME280;23688;33.130;-117.188;2023-05-29T07:09:51;99445.28;;;15.41;100.00
37848;BME280;23688;33.130;-117.188;2023-05-29T07:12:17;99434.81;;;15.41;100.00
37848;BME280;23688;33.130;-117.188;2023-05-29T07:14:44;99437.63;;;15.52;100.00
37848;BME280;23688;33.130;-117.188;2023-05-29T07:17:14;99429.63;;;15.45;100.00
37848;BME280;23688;33.130;-117.188;2023-05-29T07:19:41;99432.97;;;15.37;100.00
37848;BME280;23688;33.130;-117.188;2023-05-29T07:22:07;99437.06;;;15.26;100.00
37848;BME280;23688;33.130;-117.188;2023-05-29T07:24:33;99437.28;;;15.35;100.00
37848;BME280;23688;33.130;-117.188;2023-05-29T07:27:00;99434.81;;;15.41;100.00
37848;BME280;23688;33.130;-117.188;2023-05-29T07:29:26;99433.91;;;15.41;100.00
37848;BME280;23688;33.130;-117.188;2023-05-29T07:31:52;99429.53;;;15.40;100.00
37848;BME280;23688;33.130;-117.188;2023-05-29T07:34:19;99418.88;;;15.31;100.00
37848;BME280;23688;33.130;-117.188;2023-05-29T07:37:02;99426.09;;;15.43;100.00
37848;BME280;23688;33.130;-117.188;2023-05-29T07:39:33;99430.31;;;15.36;100.00
37848;BME280;23688;33.130;-117.188;2023-05-29T07:42:01;99431.28;;;15.39;100.00
37848;BME280;23688;33.130;-117.188;2023-05-29T07:44:27;99423.38;;;15.36;100.00
37848;BME280;23688;33.130;-117.188;2023-05-29T07:46:53;99426.84;;;15.37;100.00
37848;BME280;23688;33.130;-117.188;2023-05-29T07:49:20;99426.72;;;15.31;100.00
37848;BME280;23688;33.130;-117.188;2023-05-29T07:51:47;99428.50;;;15.32;100.00
37848;BME280;23688;33.130;-117.188;2023-05-29T07:54:13;99430.28;;;15.34;100.00
37848;BME280;23688;33.130;-117.188;2023-05-29T07:56:43;99422.34;;;15.31;100.00
37848;BME280;23688;33.130;-117.188;2023-05-29T07:59:09;99418.09;;;15.35;100.00
37848;BME280;23688;33.130;-117.188;2023-05-29T08:01:37;99427.78;;;15.40;100.00
37848;BME280;23688;33.130;-117.188;2023-05-29T08:04:05;99411.97;;;15.34;100.00
37848;BME280;23688;33.130;-117.188;2023-05-29T08:06:31;99412.13;;;15.42;100.00
37848;BME280;23688;33.130;-117.188;2023-05-29T08:08:58;99419.81;;;15.34;100.00
37848;BME280;23688;33.130;-117.188;2023-05-29T08:11:24;99418.84;;;15.29;100.00
37848;BME280;23688;33.130;-117.188;2023-05-29T08:13:51;99416.44;;;14.99;100.00
37848;BME280;23688;33.130;-117.188;2023-05-29T08:16:17;99422.38;;;14.92;100.00
37848;BME280;23688;33.130;-117.188;2023-05-29T08:18:43;99424.47;;;14.69;100.00
37848;BME280;23688;33.130;-117.188;2023-05-29T08:21:10;99429.06;;;14.79;100.00
37848;BME280;23688;33.130;-117.188;2023-05-29T08:23:36;99429.97;;;14.81;100.00
37848;BME280;23688;33.130;-117.188;2023-05-29T08:26:02;99421.22;;;14.79;100.00
37848;BME280;23688;33.130;-117.188;2023-05-29T08:28:29;99416.91;;;14.81;100.00
37848;BME280;23688;33.130;-117.188;2023-05-29T08:30:55;99434.25;;;14.77;100.00
37848;BME280;23688;33.130;-117.188;2023-05-29T08:33:21;99415.94;;;14.77;100.00
37848;BME280;23688;33.130;-117.188;2023-05-29T08:35:48;99422.16;;;14.81;100.00
37848;BME280;23688;33.130;-117.188;2023-05-29T08:38:14;99424.59;;;14.73;100.00
37848;BME280;23688;33.130;-117.188;2023-05-29T08:40:41;99432.19;;;14.64;100.00
37848;BME280;23688;33.130;-117.188;2023-05-29T08:45:44;99431.38;;;14.67;100.00
37848;BME280;23688;33.130;-117.188;2023-05-29T08:48:11;99430.81;;;14.80;100.00
37848;BME280;23688;33.130;-117.188;2023-05-29T08:50:46;99425.78;;;14.88;100.00
37848;BME280;23688;33.130;-117.188;2023-05-29T08:53:14;99427.69;;;14.95;100.00
37848;BME280;23688;33.130;-117.188;2023-05-29T08:55:41;99432.22;;;15.04;100.00
37848;BME280;23688;33.130;-117.188;2023-05-29T08:58:08;99413.09;;;15.05;100.00
37848;BME280;23688;33.130;-117.188;2023-05-29T09:00:36;99419.22;;;15.07;100.00
37848;BME280;23688;33.130;-117.188;2023-05-29T09:03:02;99405.06;;;14.97;100.00
37848;BME280;23688;33.130;-117.188;2023-05-29T09:05:29;99408.69;;;15.02;100.00
37848;BME280;23688;33.130;-117.188;2023-05-29T09:07:57;99404.13;;;14.93;100.00
37848;BME280;23688;33.130;-117.188;2023-05-29T09:10:24;99417.31;;;14.98;100.00
37848;BME280;23688;33.130;-117.188;2023-05-29T09:12:53;99405.22;;;15.03;100.00
37848;BME280;23688;33.130;-117.188;2023-05-29T09:15:22;99417.63;;;15.13;100.00
37848;BME280;23688;33.130;-117.188;2023-05-29T09:17:52;99415.16;;;15.19;100.00
37848;BME280;23688;33.130;-117.188;2023-05-29T09:20:19;99414.03;;;15.08;100.00
37848;BME280;23688;33.130;-117.188;2023-05-29T09:23:04;99420.28;;;15.15;100.00
37848;BME280;23688;33.130;-117.188;2023-05-29T09:25:38;99412.06;;;14.98;100.00
37848;BME280;23688;33.130;-117.188;2023-05-29T09:28:06;99423.44;;;15.00;100.00
37848;BME280;23688;33.130;-117.188;2023-05-29T09:33:07;99412.19;;;15.03;100.00
37848;BME280;23688;33.130;-117.188;2023-05-29T09:35:39;99415.84;;;15.11;100.00
37848;BME280;23688;33.130;-117.188;2023-05-29T09:38:07;99416.75;;;15.13;100.00
37848;BME280;23688;33.130;-117.188;2023-05-29T09:40:36;99409.69;;;15.09;100.00
37848;BME280;23688;33.130;-117.188;2023-05-29T09:43:09;99412.41;;;15.13;100.00
37848;BME280;23688;33.130;-117.188;2023-05-29T09:45:44;99406.28;;;15.13;100.00
37848;BME280;23688;33.130;-117.188;2023-05-29T09:48:15;99400.19;;;15.14;100.00
37848;BME280;23688;33.130;-117.188;2023-05-29T09:50:42;99399.31;;;15.12;100.00
37848;BME280;23688;33.130;-117.188;2023-05-29T09:53:21;99412.50;;;15.18;100.00
37848;BME280;23688;33.130;-117.188;2023-05-29T09:55:51;99401.94;;;15.12;100.00
37848;BME280;23688;33.130;-117.188;2023-05-29T09:58:21;99405.75;;;14.90;100.00
37848;BME280;23688;33.130;-117.188;2023-05-29T10:00:48;99410.22;;;14.94;100.00
37848;BME280;23688;33.130;-117.188;2023-05-29T10:03:15;99414.44;;;14.87;100.00
37848;BME280;23688;33.130;-117.188;2023-05-29T10:05:43;99420.75;;;14.97;100.00
37848;BME280;23688;33.130;-117.188;2023-05-29T10:08:14;99428.69;;;15.02;100.00
37848;BME280;23688;33.130;-117.188;2023-05-29T10:10:44;99422.75;;;15.09;100.00
37848;BME280;23688;33.130;-117.188;2023-05-29T10:13:13;99415.63;;;15.02;100.00
37848;BME280;23688;33.130;-117.188;2023-05-29T10:15:41;99423.56;;;15.05;100.00
37848;BME280;23688;33.130;-117.188;2023-05-29T10:18:26;99425.16;;;14.99;100.00
37848;BME280;23688;33.130;-117.188;2023-05-29T10:20:56;99426.50;;;14.81;100.00
37848;BME280;23688;33.130;-117.188;2023-05-29T10:23:25;99438.75;;;14.83;100.00
37848;BME280;23688;33.130;-117.188;2023-05-29T10:25:53;99418.31;;;14.67;100.00
37848;BME280;23688;33.130;-117.188;2023-05-29T10:28:21;99423.59;;;14.70;100.00
37848;BME280;23688;33.130;-117.188;2023-05-29T10:30:55;99420.19;;;14.72;100.00
37848;BME280;23688;33.130;-117.188;2023-05-29T10:36:07;99438.81;;;14.86;100.00
37848;BME280;23688;33.130;-117.188;2023-05-29T10:38:36;99426.22;;;14.70;100.00
37848;BME280;23688;33.130;-117.188;2023-05-29T10:43:57;99417.41;;;14.65;100.00
37848;BME280;23688;33.130;-117.188;2023-05-29T10:49:17;99434.00;;;14.67;100.00
37848;BME280;23688;33.130;-117.188;2023-05-29T10:51:44;99434.13;;;14.71;100.00
37848;BME280;23688;33.130;-117.188;2023-05-29T10:54:11;99432.94;;;14.59;100.00
37848;BME280;23688;33.130;-117.188;2023-05-29T10:56:40;99439.78;;;14.53;100.00
37848;BME280;23688;33.130;-117.188;2023-05-29T10:59:09;99435.19;;;14.45;100.00
37848;BME280;23688;33.130;-117.188;2023-05-29T11:01:38;99432.09;;;14.60;100.00
37848;BME280;23688;33.130;-117.188;2023-05-29T11:06:44;99433.56;;;14.50;100.00
37848;BME280;23688;33.130;-117.188;2023-05-29T11:09:29;99430.50;;;14.66;100.00
37848;BME280;23688;33.130;-117.188;2023-05-29T11:12:13;99433.31;;;14.74;100.00
37848;BME280;23688;33.130;-117.188;2023-05-29T11:15:05;99432.44;;;14.73;100.00
37848;BME280;23688;33.130;-117.188;2023-05-29T11:20:09;99426.22;;;14.70;100.00
37848;BME280;23688;33.130;-117.188;2023-05-29T11:25:14;99422.34;;;14.90;100.00
37848;BME280;23688;33.130;-117.188;2023-05-29T11:27:42;99430.19;;;14.90;100.00
37848;BME280;23688;33.130;-117.188;2023-05-29T11:30:08;99425.91;;;14.92;100.00
37848;BME280;23688;33.130;-117.188;2023-05-29T11:32:36;99419.59;;;14.84;100.00
37848;BME280;23688;33.130;-117.188;2023-05-29T11:35:08;99429.22;;;14.87;100.00
37848;BME280;23688;33.130;-117.188;2023-05-29T11:37:38;99419.47;;;14.78;100.00
37848;BME280;23688;33.130;-117.188;2023-05-29T11:40:06;99431.69;;;14.79;100.00
37848;BME280;23688;33.130;-117.188;2023-05-29T11:42:41;99423.59;;;14.68;100.00
37848;BME280;23688;33.130;-117.188;2023-05-29T11:45:18;99427.16;;;14.72;100.00
37848;BME280;23688;33.130;-117.188;2023-05-29T11:47:56;99422.69;;;14.68;100.00
37848;BME280;23688;33.130;-117.188;2023-05-29T11:50:27;99424.31;;;14.63;100.00
37848;BME280;23688;33.130;-117.188;2023-05-29T11:52:56;99434.63;;;14.57;100.00
37848;BME280;23688;33.130;-117.188;2023-05-29T11:55:23;99425.00;;;14.55;100.00
37848;BME280;23688;33.130;-117.188;2023-05-29T11:57:50;99423.50;;;14.65;100.00
37848;BME280;23688;33.130;-117.188;2023-05-29T12:00:19;99427.13;;;14.70;100.00
37848;BME280;23688;33.130;-117.188;2023-05-29T12:02:46;99433.63;;;14.88;100.00
37848;BME280;23688;33.130;-117.188;2023-05-29T12:05:16;99431.13;;;14.94;100.00
37848;BME280;23688;33.130;-117.188;2023-05-29T12:07:51;99419.59;;;14.84;100.00
37848;BME280;23688;33.130;-117.188;2023-05-29T12:10:19;99431.78;;;14.84;100.00
37848;BME280;23688;33.130;-117.188;2023-05-29T12:12:57;99420.28;;;14.77;100.00
37848;BME280;23688;33.130;-117.188;2023-05-29T12:15:24;99425.56;;;14.79;100.00
37848;BME280;23688;33.130;-117.188;2023-05-29T12:17:52;99431.78;;;14.84;100.00
37848;BME280;23688;33.130;-117.188;2023-05-29T12:20:19;99424.94;;;14.89;100.00
37848;BME280;23688;33.130;-117.188;2023-05-29T12:22:47;99418.66;;;14.81;100.00
37848;BME280;23688;33.130;-117.188;2023-05-29T12:25:20;99421.16;;;14.77;100.00
37848;BME280;23688;33.130;-117.188;2023-05-29T12:27:47;99427.41;;;14.83;100.00
37848;BME280;23688;33.130;-117.188;2023-05-29T12:30:20;99417.75;;;14.80;100.00
37848;BME280;23688;33.130;-117.188;2023-05-29T12:32:49;99431.13;;;14.94;100.00
37848;BME280;23688;33.130;-117.188;2023-05-29T12:35:18;99429.50;;;14.99;100.00
37848;BME280;23688;33.130;-117.188;2023-05-29T12:37:59;99422.34;;;14.90;100.00
37848;BME280;23688;33.130;-117.188;2023-05-29T12:40:27;99412.56;;;14.82;100.00
37848;BME280;23688;33.130;-117.188;2023-05-29T12:42:58;99413.53;;;14.87;100.00
37848;BME280;23688;33.130;-117.188;2023-05-29T12:45:26;99402.97;;;14.81;100.00
37848;BME280;23688;33.130;-117.188;2023-05-29T12:47:54;99404.84;;;14.86;100.00